sensor_id;sensor_type;location;lat;lon;timestamp;P1;durP1;ratioP1;P2;durP2;ratioP2
68921;SDS011;55959;51.244;5.724;2022-11-11T00:01:01;3.77;;;1.90;;
68921;SDS011;55959;51.244;5.724;2022-11-11T00:03:34;3.00;;;1.67;;
68921;SDS011;55959;51.244;5.724;2022-11-11T00:06:04;2.10;;;1.70;;
68921;SDS011;55959;51.244;5.724;2022-11-11T00:08:39;3.27;;;2.00;;
68921;SDS011;55959;51.244;5.724;2022-11-11T00:11:06;5.40;;;2.20;;
68921;SDS011;55959;51.244;5.724;2022-11-11T00:13:35;4.30;;;2.30;;
68921;SDS011;55959;51.244;5.724;2022-11-11T00:16:06;5.20;;;2.90;;
68921;SDS011;55959;51.244;5.724;2022-11-11T00:18:40;5.90;;;3.17;;
68921;SDS011;55959;51.244;5.724;2022-11-11T00:21:26;6.33;;;2.73;;
68921;SDS011;55959;51.244;5.724;2022-11-11T00:24:25;4.10;;;2.53;;
68921;SDS011;55959;51.244;5.724;2022-11-11T00:27:12;5.80;;;3.10;;
68921;SDS011;55959;51.244;5.724;2022-11-11T00:29:39;3.53;;;2.60;;
68921;SDS011;55959;51.244;5.724;2022-11-11T00:32:06;5.40;;;3.00;;
68921;SDS011;55959;51.244;5.724;2022-11-11T00:34:52;6.40;;;3.43;;
68921;SDS011;55959;51.244;5.724;2022-11-11T00:37:38;6.33;;;3.17;;
68921;SDS011;55959;51.244;5.724;2022-11-11T00:40:06;5.77;;;3.30;;
68921;SDS011;55959;51.244;5.724;2022-11-11T00:42:32;5.67;;;3.43;;
68921;SDS011;55959;51.244;5.724;2022-11-11T00:44:58;4.93;;;2.97;;
68921;SDS011;55959;51.244;5.724;2022-11-11T00:47:24;5.87;;;3.60;;
68921;SDS011;55959;51.244;5.724;2022-11-11T00:50:10;5.77;;;3.40;;
68921;SDS011;55959;51.244;5.724;2022-11-11T00:53:03;6.67;;;3.47;;
68921;SDS011;55959;51.244;5.724;2022-11-11T00:55:35;5.60;;;3.70;;
68921;SDS011;55959;51.244;5.724;2022-11-11T00:58:01;5.53;;;3.63;;
68921;SDS011;55959;51.244;5.724;2022-11-11T01:00:27;7.53;;;3.60;;
68921;SDS011;55959;51.244;5.724;2022-11-11T01:02:52;6.33;;;3.80;;
68921;SDS011;55959;51.244;5.724;2022-11-11T01:05:18;5.70;;;3.30;;
68921;SDS011;55959;51.244;5.724;2022-11-11T01:07:44;5.87;;;3.47;;
68921;SDS011;55959;51.244;5.724;2022-11-11T01:10:09;5.47;;;3.53;;
68921;SDS011;55959;51.244;5.724;2022-11-11T01:12:35;5.30;;;3.70;;
68921;SDS011;55959;51.244;5.724;2022-11-11T01:15:01;7.23;;;3.80;;
68921;SDS011;55959;51.244;5.724;2022-11-11T01:17:28;6.87;;;3.47;;
68921;SDS011;55959;51.244;5.724;2022-11-11T01:19:53;6.47;;;3.40;;
68921;SDS011;55959;51.244;5.724;2022-11-11T01:22:19;5.60;;;4.03;;
68921;SDS011;55959;51.244;5.724;2022-11-11T01:24:45;6.07;;;3.80;;
68921;SDS011;55959;51.244;5.724;2022-11-11T01:27:11;5.10;;;4.23;;
68921;SDS011;55959;51.244;5.724;2022-11-11T01:29:36;7.30;;;4.17;;
68921;SDS011;55959;51.244;5.724;2022-11-11T01:32:02;7.27;;;4.57;;
68921;SDS011;55959;51.244;5.724;2022-11-11T01:34:28;8.57;;;5.03;;
68921;SDS011;55959;51.244;5.724;2022-11-11T01:36:54;7.37;;;4.00;;
68921;SDS011;55959;51.244;5.724;2022-11-11T01:39:19;6.50;;;4.43;;
68921;SDS011;55959;51.244;5.724;2022-11-11T01:41:45;5.77;;;4.13;;
68921;SDS011;55959;51.244;5.724;2022-11-11T01:46:44;5.43;;;3.67;;
68921;SDS011;55959;51.244;5.724;2022-11-11T01:55:16;4.87;;;3.70;;
68921;SDS011;55959;51.244;5.724;2022-11-11T01:57:47;5.73;;;3.70;;
68921;SDS011;55959;51.244;5.724;2022-11-11T02:00:18;5.93;;;3.70;;
68921;SDS011;55959;51.244;5.724;2022-11-11T02:03:05;5.27;;;3.53;;
68921;SDS011;55959;51.244;5.724;2022-11-11T02:05:33;3.70;;;3.27;;
68921;SDS011;55959;51.244;5.724;2022-11-11T02:08:18;5.47;;;3.57;;
68921;SDS011;55959;51.244;5.724;2022-11-11T02:11:02;4.23;;;3.70;;
68921;SDS011;55959;51.244;5.724;2022-11-11T02:13:41;6.17;;;3.80;;
68921;SDS011;55959;51.244;5.724;2022-11-11T02:16:26;6.77;;;4.10;;
68921;SDS011;55959;51.244;5.724;2022-11-11T02:18:54;5.03;;;3.73;;
68921;SDS011;55959;51.244;5.724;2022-11-11T02:21:24;6.20;;;4.50;;
68921;SDS011;55959;51.244;5.724;2022-11-11T02:24:05;6.40;;;4.90;;
68921;SDS011;55959;51.244;5.724;2022-11-11T02:26:42;6.27;;;4.97;;
68921;SDS011;55959;51.244;5.724;2022-11-11T02:29:10;8.83;;;6.20;;
68921;SDS011;55959;51.244;5.724;2022-11-11T02:31:40;7.50;;;5.37;;
68921;SDS011;55959;51.244;5.724;2022-11-11T02:34:05;7.13;;;5.40;;
68921;SDS011;55959;51.244;5.724;2022-11-11T02:36:31;7.50;;;5.97;;
68921;SDS011;55959;51.244;5.724;2022-11-11T02:38:57;7.67;;;5.83;;
68921;SDS011;55959;51.244;5.724;2022-11-11T02:41:23;6.50;;;5.40;;
68921;SDS011;55959;51.244;5.724;2022-11-11T02:44:07;6.27;;;4.67;;
68921;SDS011;55959;51.244;5.724;2022-11-11T02:46:33;7.43;;;5.70;;
68921;SDS011;55959;51.244;5.724;2022-11-11T02:48:59;7.23;;;4.87;;
68921;SDS011;55959;51.244;5.724;2022-11-11T02:51:25;5.33;;;4.30;;
68921;SDS011;55959;51.244;5.724;2022-11-11T02:53:50;5.83;;;4.40;;
68921;SDS011;55959;51.244;5.724;2022-11-11T02:56:16;5.23;;;4.40;;
68921;SDS011;55959;51.244;5.724;2022-11-11T02:59:02;5.90;;;3.93;;
68921;SDS011;55959;51.244;5.724;2022-11-11T03:01:27;4.47;;;3.53;;
68921;SDS011;55959;51.244;5.724;2022-11-11T03:03:53;5.80;;;3.90;;
68921;SDS011;55959;51.244;5.724;2022-11-11T03:06:19;6.80;;;3.70;;
68921;SDS011;55959;51.244;5.724;2022-11-11T03:08:44;4.67;;;3.80;;
68921;SDS011;55959;51.244;5.724;2022-11-11T03:11:10;5.83;;;3.80;;
68921;SDS011;55959;51.244;5.724;2022-11-11T03:13:36;5.60;;;3.60;;
68921;SDS011;55959;51.244;5.724;2022-11-11T03:16:02;5.33;;;3.83;;
68921;SDS011;55959;51.244;5.724;2022-11-11T03:18:29;3.77;;;3.00;;
68921;SDS011;55959;51.244;5.724;2022-11-11T03:20:54;4.00;;;3.33;;
68921;SDS011;55959;51.244;5.724;2022-11-11T03:23:29;4.27;;;3.57;;
68921;SDS011;55959;51.244;5.724;2022-11-11T03:25:55;3.90;;;3.43;;
68921;SDS011;55959;51.244;5.724;2022-11-11T03:28:21;5.47;;;3.70;;
68921;SDS011;55959;51.244;5.724;2022-11-11T03:30:49;5.83;;;3.43;;
68921;SDS011;55959;51.244;5.724;2022-11-11T03:33:15;3.50;;;3.20;;
68921;SDS011;55959;51.244;5.724;2022-11-11T03:35:42;5.20;;;3.20;;
68921;SDS011;55959;51.244;5.724;2022-11-11T03:38:11;4.57;;;3.20;;
68921;SDS011;55959;51.244;5.724;2022-11-11T03:40:46;4.40;;;3.20;;
68921;SDS011;55959;51.244;5.724;2022-11-11T03:43:14;5.83;;;3.17;;
68921;SDS011;55959;51.244;5.724;2022-11-11T03:45:42;3.77;;;3.00;;
68921;SDS011;55959;51.244;5.724;2022-11-11T03:48:09;3.50;;;2.87;;
68921;SDS011;55959;51.244;5.724;2022-11-11T03:50:35;3.70;;;3.00;;
68921;SDS011;55959;51.244;5.724;2022-11-11T03:53:01;4.07;;;3.27;;
68921;SDS011;55959;51.244;5.724;2022-11-11T03:55:27;3.97;;;2.77;;
68921;SDS011;55959;51.244;5.724;2022-11-11T03:57:53;4.00;;;2.80;;
68921;SDS011;55959;51.244;5.724;2022-11-11T04:00:20;4.33;;;2.97;;
68921;SDS011;55959;51.244;5.724;2022-11-11T04:03:00;3.43;;;2.70;;
68921;SDS011;55959;51.244;5.724;2022-11-11T04:05:58;4.57;;;3.63;;
68921;SDS011;55959;51.244;5.724;2022-11-11T04:08:43;3.50;;;2.60;;
68921;SDS011;55959;51.244;5.724;2022-11-11T04:11:38;3.60;;;2.60;;
68921;SDS011;55959;51.244;5.724;2022-11-11T04:14:10;2.70;;;2.47;;
68921;SDS011;55959;51.244;5.724;2022-11-11T04:16:57;3.00;;;2.53;;
68921;SDS011;55959;51.244;5.724;2022-11-11T04:19:23;2.97;;;2.50;;
68921;SDS011;55959;51.244;5.724;2022-11-11T04:22:07;3.00;;;2.70;;
68921;SDS011;55959;51.244;5.724;2022-11-11T04:24:34;3.93;;;3.00;;
68921;SDS011;55959;51.244;5.724;2022-11-11T04:27:19;5.40;;;2.67;;
68921;SDS011;55959;51.244;5.724;2022-11-11T04:29:45;3.50;;;2.47;;
68921;SDS011;55959;51.244;5.724;2022-11-11T04:32:15;2.50;;;2.30;;
68921;SDS011;55959;51.244;5.724;2022-11-11T04:35:06;3.73;;;2.97;;
68921;SDS011;55959;51.244;5.724;2022-11-11T04:37:44;3.33;;;2.50;;
68921;SDS011;55959;51.244;5.724;2022-11-11T04:40:14;3.27;;;2.20;;
68921;SDS011;55959;51.244;5.724;2022-11-11T04:42:58;4.10;;;2.43;;
68921;SDS011;55959;51.244;5.724;2022-11-11T04:45:24;2.97;;;2.40;;
68921;SDS011;55959;51.244;5.724;2022-11-11T04:48:00;4.63;;;2.70;;
68921;SDS011;55959;51.244;5.724;2022-11-11T04:50:38;4.47;;;2.90;;
68921;SDS011;55959;51.244;5.724;2022-11-11T04:53:11;2.93;;;2.37;;
68921;SDS011;55959;51.244;5.724;2022-11-11T04:55:39;3.00;;;2.70;;
68921;SDS011;55959;51.244;5.724;2022-11-11T04:58:26;2.67;;;2.47;;
68921;SDS011;55959;51.244;5.724;2022-11-11T05:00:55;2.83;;;2.50;;
68921;SDS011;55959;51.244;5.724;2022-11-11T05:03:21;4.17;;;2.70;;
68921;SDS011;55959;51.244;5.724;2022-11-11T05:05:50;3.50;;;3.00;;
68921;SDS011;55959;51.244;5.724;2022-11-11T05:08:37;3.20;;;2.90;;
68921;SDS011;55959;51.244;5.724;2022-11-11T05:11:21;3.00;;;2.77;;
68921;SDS011;55959;51.244;5.724;2022-11-11T05:13:48;4.77;;;2.97;;
68921;SDS011;55959;51.244;5.724;2022-11-11T05:16:38;4.53;;;2.70;;
68921;SDS011;55959;51.244;5.724;2022-11-11T05:19:27;3.50;;;3.00;;
68921;SDS011;55959;51.244;5.724;2022-11-11T05:24:52;5.07;;;3.30;;
68921;SDS011;55959;51.244;5.724;2022-11-11T05:27:36;4.40;;;3.37;;
68921;SDS011;55959;51.244;5.724;2022-11-11T05:30:03;3.30;;;3.00;;
68921;SDS011;55959;51.244;5.724;2022-11-11T05:32:31;4.10;;;2.87;;
68921;SDS011;55959;51.244;5.724;2022-11-11T05:34:57;3.50;;;3.20;;
68921;SDS011;55959;51.244;5.724;2022-11-11T05:37:23;4.00;;;3.60;;
68921;SDS011;55959;51.244;5.724;2022-11-11T05:39:49;4.63;;;3.40;;
68921;SDS011;55959;51.244;5.724;2022-11-11T05:42:15;3.50;;;3.20;;
68921;SDS011;55959;51.244;5.724;2022-11-11T05:44:40;4.37;;;3.97;;
68921;SDS011;55959;51.244;5.724;2022-11-11T05:47:07;4.33;;;3.93;;
68921;SDS011;55959;51.244;5.724;2022-11-11T05:49:32;4.27;;;3.87;;
68921;SDS011;55959;51.244;5.724;2022-11-11T05:51:58;5.47;;;3.80;;
68921;SDS011;55959;51.244;5.724;2022-11-11T05:54:24;5.73;;;3.67;;
68921;SDS011;55959;51.244;5.724;2022-11-11T05:56:50;4.87;;;3.90;;
68921;SDS011;55959;51.244;5.724;2022-11-11T05:59:16;4.03;;;3.43;;
68921;SDS011;55959;51.244;5.724;2022-11-11T06:01:42;4.37;;;3.50;;
68921;SDS011;55959;51.244;5.724;2022-11-11T06:04:08;4.47;;;3.20;;
68921;SDS011;55959;51.244;5.724;2022-11-11T06:06:34;4.47;;;3.50;;
68921;SDS011;55959;51.244;5.724;2022-11-11T06:09:02;3.60;;;3.10;;
68921;SDS011;55959;51.244;5.724;2022-11-11T06:11:29;4.73;;;3.20;;
68921;SDS011;55959;51.244;5.724;2022-11-11T06:13:55;3.93;;;2.90;;
68921;SDS011;55959;51.244;5.724;2022-11-11T06:16:21;3.60;;;3.17;;
68921;SDS011;55959;51.244;5.724;2022-11-11T06:18:47;5.53;;;3.37;;
68921;SDS011;55959;51.244;5.724;2022-11-11T06:21:14;4.27;;;3.07;;
68921;SDS011;55959;51.244;5.724;2022-11-11T06:23:41;4.10;;;3.17;;
68921;SDS011;55959;51.244;5.724;2022-11-11T06:26:08;4.47;;;2.80;;
68921;SDS011;55959;51.244;5.724;2022-11-11T06:31:06;4.07;;;3.10;;
68921;SDS011;55959;51.244;5.724;2022-11-11T06:33:33;3.20;;;2.90;;
68921;SDS011;55959;51.244;5.724;2022-11-11T06:36:00;5.67;;;2.90;;
68921;SDS011;55959;51.244;5.724;2022-11-11T06:38:29;3.47;;;3.17;;
68921;SDS011;55959;51.244;5.724;2022-11-11T06:40:55;5.47;;;3.23;;
68921;SDS011;55959;51.244;5.724;2022-11-11T06:43:22;3.50;;;3.00;;
68921;SDS011;55959;51.244;5.724;2022-11-11T06:45:49;4.13;;;3.00;;
68921;SDS011;55959;51.244;5.724;2022-11-11T06:48:19;5.10;;;3.17;;
68921;SDS011;55959;51.244;5.724;2022-11-11T06:50:46;2.80;;;2.57;;
68921;SDS011;55959;51.244;5.724;2022-11-11T06:53:13;2.83;;;2.60;;
68921;SDS011;55959;51.244;5.724;2022-11-11T06:55:41;3.50;;;3.03;;
68921;SDS011;55959;51.244;5.724;2022-11-11T06:58:15;3.20;;;2.57;;
68921;SDS011;55959;51.244;5.724;2022-11-11T07:00:44;6.40;;;3.63;;
68921;SDS011;55959;51.244;5.724;2022-11-11T07:03:12;4.60;;;3.50;;
68921;SDS011;55959;51.244;5.724;2022-11-11T07:05:41;4.57;;;2.87;;
68921;SDS011;55959;51.244;5.724;2022-11-11T07:08:12;3.90;;;3.07;;
68921;SDS011;55959;51.244;5.724;2022-11-11T07:10:46;4.43;;;3.10;;
68921;SDS011;55959;51.244;5.724;2022-11-11T07:13:15;4.23;;;3.23;;
68921;SDS011;55959;51.244;5.724;2022-11-11T07:15:42;4.37;;;3.07;;
68921;SDS011;55959;51.244;5.724;2022-11-11T07:18:08;3.23;;;2.70;;
68921;SDS011;55959;51.244;5.724;2022-11-11T07:20:35;3.00;;;2.67;;
68921;SDS011;55959;51.244;5.724;2022-11-11T07:23:02;4.00;;;2.77;;
68921;SDS011;55959;51.244;5.724;2022-11-11T07:25:29;4.43;;;3.00;;
68921;SDS011;55959;51.244;5.724;2022-11-11T07:27:54;2.97;;;2.73;;
68921;SDS011;55959;51.244;5.724;2022-11-11T07:30:20;3.70;;;2.87;;
68921;SDS011;55959;51.244;5.724;2022-11-11T07:32:47;4.13;;;3.27;;
68921;SDS011;55959;51.244;5.724;2022-11-11T07:35:14;3.93;;;3.57;;
68921;SDS011;55959;51.244;5.724;2022-11-11T07:37:41;3.20;;;2.90;;
68921;SDS011;55959;51.244;5.724;2022-11-11T07:40:09;3.90;;;3.03;;
68921;SDS011;55959;51.244;5.724;2022-11-11T07:42:37;3.80;;;3.10;;
68921;SDS011;55959;51.244;5.724;2022-11-11T07:45:04;5.20;;;3.33;;
68921;SDS011;55959;51.244;5.724;2022-11-11T07:47:31;3.27;;;2.90;;
68921;SDS011;55959;51.244;5.724;2022-11-11T07:49:58;4.70;;;2.70;;
68921;SDS011;55959;51.244;5.724;2022-11-11T07:52:25;3.40;;;2.87;;
68921;SDS011;55959;51.244;5.724;2022-11-11T07:54:50;3.80;;;3.20;;
68921;SDS011;55959;51.244;5.724;2022-11-11T07:57:16;5.30;;;3.00;;
68921;SDS011;55959;51.244;5.724;2022-11-11T07:59:43;4.30;;;3.90;;
68921;SDS011;55959;51.244;5.724;2022-11-11T08:02:09;3.40;;;2.67;;
68921;SDS011;55959;51.244;5.724;2022-11-11T08:04:36;4.63;;;3.00;;
68921;SDS011;55959;51.244;5.724;2022-11-11T08:07:01;3.93;;;2.80;;
68921;SDS011;55959;51.244;5.724;2022-11-11T08:09:27;5.17;;;3.00;;
68921;SDS011;55959;51.244;5.724;2022-11-11T08:11:53;5.47;;;2.70;;
68921;SDS011;55959;51.244;5.724;2022-11-11T08:14:38;3.90;;;2.70;;
68921;SDS011;55959;51.244;5.724;2022-11-11T08:17:04;3.53;;;2.77;;
68921;SDS011;55959;51.244;5.724;2022-11-11T08:19:29;2.60;;;2.40;;
68921;SDS011;55959;51.244;5.724;2022-11-11T08:21:55;3.30;;;2.63;;
68921;SDS011;55959;51.244;5.724;2022-11-11T08:24:21;3.97;;;2.97;;
68921;SDS011;55959;51.244;5.724;2022-11-11T08:26:47;3.97;;;3.00;;
68921;SDS011;55959;51.244;5.724;2022-11-11T08:29:13;4.57;;;3.10;;
68921;SDS011;55959;51.244;5.724;2022-11-11T08:31:39;4.03;;;2.63;;
68921;SDS011;55959;51.244;5.724;2022-11-11T08:34:05;4.90;;;2.40;;
68921;SDS011;55959;51.244;5.724;2022-11-11T08:36:31;3.87;;;2.90;;
68921;SDS011;55959;51.244;5.724;2022-11-11T08:38:57;4.33;;;2.87;;
68921;SDS011;55959;51.244;5.724;2022-11-11T08:41:22;4.40;;;3.00;;
68921;SDS011;55959;51.244;5.724;2022-11-11T08:43:52;2.77;;;2.57;;
68921;SDS011;55959;51.244;5.724;2022-11-11T08:46:19;2.27;;;2.07;;
68921;SDS011;55959;51.244;5.724;2022-11-11T08:48:45;3.03;;;2.40;;
68921;SDS011;55959;51.244;5.724;2022-11-11T08:51:12;3.17;;;2.30;;
68921;SDS011;55959;51.244;5.724;2022-11-11T08:53:38;2.50;;;2.30;;
68921;SDS011;55959;51.244;5.724;2022-11-11T08:56:04;3.17;;;2.30;;
68921;SDS011;55959;51.244;5.724;2022-11-11T08:58:31;5.50;;;2.90;;
68921;SDS011;55959;51.244;5.724;2022-11-11T09:00:57;3.37;;;2.23;;
68921;SDS011;55959;51.244;5.724;2022-11-11T09:03:23;3.10;;;2.17;;
68921;SDS011;55959;51.244;5.724;2022-11-11T09:05:49;3.93;;;1.97;;
68921;SDS011;55959;51.244;5.724;2022-11-11T09:08:15;2.60;;;1.80;;
68921;SDS011;55959;51.244;5.724;2022-11-11T09:10:41;2.60;;;2.27;;
68921;SDS011;55959;51.244;5.724;2022-11-11T09:13:07;2.20;;;2.00;;
68921;SDS011;55959;51.244;5.724;2022-11-11T09:15:33;5.30;;;2.40;;
68921;SDS011;55959;51.244;5.724;2022-11-11T09:17:58;4.30;;;2.57;;
68921;SDS011;55959;51.244;5.724;2022-11-11T09:20:25;2.40;;;2.10;;
68921;SDS011;55959;51.244;5.724;2022-11-11T09:22:51;3.40;;;2.00;;
68921;SDS011;55959;51.244;5.724;2022-11-11T09:25:17;3.40;;;2.20;;
68921;SDS011;55959;51.244;5.724;2022-11-11T09:27:52;4.77;;;2.50;;
68921;SDS011;55959;51.244;5.724;2022-11-11T09:30:22;5.03;;;2.50;;
68921;SDS011;55959;51.244;5.724;2022-11-11T09:32:49;4.17;;;2.40;;
68921;SDS011;55959;51.244;5.724;2022-11-11T09:35:15;3.43;;;2.20;;
68921;SDS011;55959;51.244;5.724;2022-11-11T09:37:41;2.97;;;2.30;;
68921;SDS011;55959;51.244;5.724;2022-11-11T09:40:08;3.13;;;2.00;;
68921;SDS011;55959;51.244;5.724;2022-11-11T09:42:43;3.23;;;1.90;;
68921;SDS011;55959;51.244;5.724;2022-11-11T09:45:36;3.50;;;1.90;;
68921;SDS011;55959;51.244;5.724;2022-11-11T09:51:04;3.67;;;2.17;;
68921;SDS011;55959;51.244;5.724;2022-11-11T09:53:41;3.63;;;2.00;;
68921;SDS011;55959;51.244;5.724;2022-11-11T09:56:16;3.77;;;2.40;;
68921;SDS011;55959;51.244;5.724;2022-11-11T09:58:49;2.20;;;1.80;;
68921;SDS011;55959;51.244;5.724;2022-11-11T10:01:22;2.37;;;1.67;;
68921;SDS011;55959;51.244;5.724;2022-11-11T10:03:59;1.90;;;1.70;;
68921;SDS011;55959;51.244;5.724;2022-11-11T10:06:40;4.87;;;2.23;;
68921;SDS011;55959;51.244;5.724;2022-11-11T10:12:22;2.50;;;1.60;;
68921;SDS011;55959;51.244;5.724;2022-11-11T10:14:37;4.43;;;2.13;;
68921;SDS011;55959;51.244;5.724;2022-11-11T10:22:41;3.50;;;1.63;;
68921;SDS011;55959;51.244;5.724;2022-11-11T10:27:44;2.03;;;1.57;;
68921;SDS011;55959;51.244;5.724;2022-11-11T10:33:01;2.67;;;1.60;;
68921;SDS011;55959;51.244;5.724;2022-11-11T10:35:41;1.33;;;1.10;;
68921;SDS011;55959;51.244;5.724;2022-11-11T10:38:15;1.63;;;1.20;;
68921;SDS011;55959;51.244;5.724;2022-11-11T10:40:49;3.67;;;1.40;;
68921;SDS011;55959;51.244;5.724;2022-11-11T10:43:22;2.07;;;1.00;;
68921;SDS011;55959;51.244;5.724;2022-11-11T10:48:58;2.13;;;1.10;;
68921;SDS011;55959;51.244;5.724;2022-11-11T10:54:18;1.23;;;0.80;;
68921;SDS011;55959;51.244;5.724;2022-11-11T10:56:59;1.87;;;1.10;;
68921;SDS011;55959;51.244;5.724;2022-11-11T11:02:44;1.87;;;1.10;;
68921;SDS011;55959;51.244;5.724;2022-11-11T11:05:28;1.67;;;1.30;;
68921;SDS011;55959;51.244;5.724;2022-11-11T11:08:05;1.77;;;0.90;;
68921;SDS011;55959;51.244;5.724;2022-11-11T11:10:47;2.20;;;1.10;;
68921;SDS011;55959;51.244;5.724;2022-11-11T11:13:44;1.57;;;1.10;;
68921;SDS011;55959;51.244;5.724;2022-11-11T11:16:17;1.67;;;1.20;;
68921;SDS011;55959;51.244;5.724;2022-11-11T11:21:55;2.17;;;1.00;;
68921;SDS011;55959;51.244;5.724;2022-11-11T11:26:58;2.43;;;1.20;;
68921;SDS011;55959;51.244;5.724;2022-11-11T11:29:33;2.43;;;1.20;;
68921;SDS011;55959;51.244;5.724;2022-11-11T11:34:55;1.00;;;0.70;;
68921;SDS011;55959;51.244;5.724;2022-11-11T11:37:25;1.43;;;0.80;;
68921;SDS011;55959;51.244;5.724;2022-11-11T11:39:58;1.87;;;1.00;;
68921;SDS011;55959;51.244;5.724;2022-11-11T11:42:33;2.50;;;1.00;;
68921;SDS011;55959;51.244;5.724;2022-11-11T11:50:34;2.80;;;1.30;;
68921;SDS011;55959;51.244;5.724;2022-11-11T11:55:53;2.87;;;1.10;;
68921;SDS011;55959;51.244;5.724;2022-11-11T12:27:55;1.30;;;0.90;;
68921;SDS011;55959;51.244;5.724;2022-11-11T12:30:48;2.43;;;1.00;;
68921;SDS011;55959;51.244;5.724;2022-11-11T12:33:37;2.30;;;1.10;;
68921;SDS011;55959;51.244;5.724;2022-11-11T12:50:19;1.67;;;1.00;;
68921;SDS011;55959;51.244;5.724;2022-11-11T12:55:39;1.13;;;0.90;;
68921;SDS011;55959;51.244;5.724;2022-11-11T13:06:37;1.13;;;0.90;;
68921;SDS011;55959;51.244;5.724;2022-11-11T13:09:21;1.73;;;0.93;;
68921;SDS011;55959;51.244;5.724;2022-11-11T13:12:06;2.80;;;1.00;;
68921;SDS011;55959;51.244;5.724;2022-11-11T13:17:41;1.83;;;1.10;;
68921;SDS011;55959;51.244;5.724;2022-11-11T13:23:17;1.00;;;0.83;;
68921;SDS011;55959;51.244;5.724;2022-11-11T13:25:44;1.23;;;1.00;;
68921;SDS011;55959;51.244;5.724;2022-11-11T13:28:18;2.27;;;1.10;;
68921;SDS011;55959;51.244;5.724;2022-11-11T13:34:01;1.37;;;0.83;;
68921;SDS011;55959;51.244;5.724;2022-11-11T13:36:31;3.10;;;1.20;;
68921;SDS011;55959;51.244;5.724;2022-11-11T13:39:27;1.57;;;1.40;;
68921;SDS011;55959;51.244;5.724;2022-11-11T13:42:09;2.60;;;1.40;;
68921;SDS011;55959;51.244;5.724;2022-11-11T13:47:20;1.77;;;1.30;;
68921;SDS011;55959;51.244;5.724;2022-11-11T13:52:54;2.00;;;1.20;;
68921;SDS011;55959;51.244;5.724;2022-11-11T13:58:05;2.20;;;1.50;;
68921;SDS011;55959;51.244;5.724;2022-11-11T14:00:35;2.60;;;1.20;;
68921;SDS011;55959;51.244;5.724;2022-11-11T14:05:44;2.27;;;1.10;;
68921;SDS011;55959;51.244;5.724;2022-11-11T14:08:47;1.60;;;1.20;;
68921;SDS011;55959;51.244;5.724;2022-11-11T14:13:50;1.73;;;1.30;;
68921;SDS011;55959;51.244;5.724;2022-11-11T14:24:22;3.13;;;2.00;;
68921;SDS011;55959;51.244;5.724;2022-11-11T14:27:00;3.43;;;2.63;;
68921;SDS011;55959;51.244;5.724;2022-11-11T14:29:48;4.13;;;2.87;;
68921;SDS011;55959;51.244;5.724;2022-11-11T14:35:38;6.03;;;4.17;;
68921;SDS011;55959;51.244;5.724;2022-11-11T14:38:17;3.70;;;2.97;;
68921;SDS011;55959;51.244;5.724;2022-11-11T14:49:53;2.17;;;1.63;;
68921;SDS011;55959;51.244;5.724;2022-11-11T15:00:12;2.30;;;1.93;;
68921;SDS011;55959;51.244;5.724;2022-11-11T15:02:50;2.60;;;2.37;;
68921;SDS011;55959;51.244;5.724;2022-11-11T15:05:23;2.47;;;2.20;;
68921;SDS011;55959;51.244;5.724;2022-11-11T15:08:23;2.07;;;1.80;;
68921;SDS011;55959;51.244;5.724;2022-11-11T15:13:41;2.30;;;1.43;;
68921;SDS011;55959;51.244;5.724;2022-11-11T15:22:23;2.30;;;1.80;;
68921;SDS011;55959;51.244;5.724;2022-11-11T15:31:17;2.77;;;1.90;;
68921;SDS011;55959;51.244;5.724;2022-11-11T15:34:26;2.07;;;1.40;;
68921;SDS011;55959;51.244;5.724;2022-11-11T15:37:11;2.50;;;1.47;;
68921;SDS011;55959;51.244;5.724;2022-11-11T15:39:45;3.83;;;1.70;;
68921;SDS011;55959;51.244;5.724;2022-11-11T15:42:34;2.17;;;1.60;;
68921;SDS011;55959;51.244;5.724;2022-11-11T15:47:42;3.33;;;2.50;;
68921;SDS011;55959;51.244;5.724;2022-11-11T15:50:22;4.37;;;3.97;;
68921;SDS011;55959;51.244;5.724;2022-11-11T15:52:55;4.67;;;3.30;;
68921;SDS011;55959;51.244;5.724;2022-11-11T15:55:27;3.63;;;3.00;;
68921;SDS011;55959;51.244;5.724;2022-11-11T15:58:15;2.80;;;2.40;;
68921;SDS011;55959;51.244;5.724;2022-11-11T16:00:48;3.97;;;2.83;;
68921;SDS011;55959;51.244;5.724;2022-11-11T16:03:17;4.23;;;3.60;;
68921;SDS011;55959;51.244;5.724;2022-11-11T16:06:07;5.80;;;4.50;;
68921;SDS011;55959;51.244;5.724;2022-11-11T16:08:35;6.63;;;4.50;;
68921;SDS011;55959;51.244;5.724;2022-11-11T16:11:01;5.17;;;4.63;;
68921;SDS011;55959;51.244;5.724;2022-11-11T16:13:33;5.07;;;4.57;;
68921;SDS011;55959;51.244;5.724;2022-11-11T16:16:07;9.03;;;5.00;;
68921;SDS011;55959;51.244;5.724;2022-11-11T16:18:44;6.43;;;4.70;;
68921;SDS011;55959;51.244;5.724;2022-11-11T16:21:33;5.10;;;4.13;;
68921;SDS011;55959;51.244;5.724;2022-11-11T16:24:02;5.37;;;3.73;;
68921;SDS011;55959;51.244;5.724;2022-11-11T16:26:32;4.67;;;3.87;;
68921;SDS011;55959;51.244;5.724;2022-11-11T16:28:58;6.17;;;4.53;;
68921;SDS011;55959;51.244;5.724;2022-11-11T16:37:02;7.90;;;6.63;;
68921;SDS011;55959;51.244;5.724;2022-11-11T16:39:30;8.83;;;5.90;;
68921;SDS011;55959;51.244;5.724;2022-11-11T16:41:58;6.37;;;5.67;;
68921;SDS011;55959;51.244;5.724;2022-11-11T16:47:05;5.03;;;4.50;;
68921;SDS011;55959;51.244;5.724;2022-11-11T16:52:30;6.90;;;4.50;;
68921;SDS011;55959;51.244;5.724;2022-11-11T16:55:09;7.50;;;5.47;;
68921;SDS011;55959;51.244;5.724;2022-11-11T16:57:43;7.27;;;5.50;;
68921;SDS011;55959;51.244;5.724;2022-11-11T17:00:17;6.17;;;5.27;;
68921;SDS011;55959;51.244;5.724;2022-11-11T17:03:01;5.80;;;4.47;;
68921;SDS011;55959;51.244;5.724;2022-11-11T17:05:54;6.77;;;4.70;;
68921;SDS011;55959;51.244;5.724;2022-11-11T17:11:06;7.20;;;5.37;;
68921;SDS011;55959;51.244;5.724;2022-11-11T17:13:52;7.37;;;4.73;;
68921;SDS011;55959;51.244;5.724;2022-11-11T17:16:18;9.67;;;5.67;;
68921;SDS011;55959;51.244;5.724;2022-11-11T17:18:44;8.10;;;5.60;;
68921;SDS011;55959;51.244;5.724;2022-11-11T17:21:10;9.60;;;7.20;;
68921;SDS011;55959;51.244;5.724;2022-11-11T17:23:36;8.27;;;5.83;;
68921;SDS011;55959;51.244;5.724;2022-11-11T17:26:03;5.50;;;4.80;;
68921;SDS011;55959;51.244;5.724;2022-11-11T17:28:30;7.40;;;4.90;;
68921;SDS011;55959;51.244;5.724;2022-11-11T17:31:02;5.43;;;3.90;;
68921;SDS011;55959;51.244;5.724;2022-11-11T17:33:32;4.07;;;3.67;;
68921;SDS011;55959;51.244;5.724;2022-11-11T17:35:58;3.73;;;3.33;;
68921;SDS011;55959;51.244;5.724;2022-11-11T17:38:25;5.17;;;3.70;;
68921;SDS011;55959;51.244;5.724;2022-11-11T17:40:52;4.30;;;3.77;;
68921;SDS011;55959;51.244;5.724;2022-11-11T17:43:18;4.20;;;3.80;;
68921;SDS011;55959;51.244;5.724;2022-11-11T17:45:44;12.23;;;6.13;;
68921;SDS011;55959;51.244;5.724;2022-11-11T17:48:10;11.37;;;6.20;;
68921;SDS011;55959;51.244;5.724;2022-11-11T17:50:37;7.53;;;4.67;;
68921;SDS011;55959;51.244;5.724;2022-11-11T17:53:05;4.40;;;3.90;;
68921;SDS011;55959;51.244;5.724;2022-11-11T17:55:32;4.70;;;3.63;;
68921;SDS011;55959;51.244;5.724;2022-11-11T17:57:58;4.17;;;3.20;;
68921;SDS011;55959;51.244;5.724;2022-11-11T18:00:24;4.27;;;3.50;;
68921;SDS011;55959;51.244;5.724;2022-11-11T18:02:51;4.07;;;3.37;;
68921;SDS011;55959;51.244;5.724;2022-11-11T18:05:17;4.87;;;4.17;;
68921;SDS011;55959;51.244;5.724;2022-11-11T18:07:43;5.27;;;3.77;;
68921;SDS011;55959;51.244;5.724;2022-11-11T18:10:09;5.27;;;4.13;;
68921;SDS011;55959;51.244;5.724;2022-11-11T18:12:36;6.53;;;4.70;;
68921;SDS011;55959;51.244;5.724;2022-11-11T18:15:02;9.30;;;5.13;;
68921;SDS011;55959;51.244;5.724;2022-11-11T18:17:29;6.13;;;4.67;;
68921;SDS011;55959;51.244;5.724;2022-11-11T18:19:55;6.13;;;4.90;;
68921;SDS011;55959;51.244;5.724;2022-11-11T18:22:21;6.03;;;4.53;;
68921;SDS011;55959;51.244;5.724;2022-11-11T18:24:47;5.10;;;3.97;;
68921;SDS011;55959;51.244;5.724;2022-11-11T18:27:13;5.40;;;4.27;;